Heinz Schepers — V2OM7 — position and weather

sailwx.info

Track history (hours):
 
Tides and Currents Weather Stations Pressure Air Temp Water Temp Dewpoint Dewpoint Depression Visibility Wind Speed Wind Dir Waves Ship Positions

Heinz Schepers

Last reported at 2014-Aug-20 23:33 UTC. Time now 2014-Aug-21 00:24 UTC.
Position N 38°18' E 025°16'.

Length 101 m; draft 5 m.

Type: Cargo ship. MMSI: 304596000.

Date/timePositionNaut miles runAvg speedWind from/ knotsBaromVisibWave heightAir tempDewpointWater temp
2014-Aug-20 23:33N 38°18' E 025°16'2713.5
2014-Aug-20 21:33N 38°04' E 025°45'1613.6
2014-Aug-20 20:21N 37°56' E 026°03'1113.5
2014-Aug-20 19:33N 37°50' E 026°15'1313.3
2014-Aug-20 18:33N 37°43' E 026°29'1312.9
2014-Aug-20 17:33N 37°33' E 026°39'1313.0
2014-Aug-20 16:33N 37°22' E 026°49'1313.4
2014-Aug-20 15:33N 37°11' E 026°58'1413.3
2014-Aug-20 14:30N 36°60' E 027°08'1313.4
2014-Aug-20 13:31N 36°53' E 027°22'1313.5
2014-Aug-20 12:32N 36°40' E 027°19'1312.8
2014-Aug-20 11:32N 36°34' E 027°34'25613.9
2014-Aug-19 17:05N 34°43' E 032°17'713.0
2014-Aug-19 16:31N 34°39' E 032°25'1212.7
2014-Aug-19 15:33N 34°36' E 032°39'1312.5
2014-Aug-19 14:34N 34°32' E 032°53'9 9.5
2014-Aug-19 13:33N 34°37' E 033°03'3 2.9
2014-Aug-19 12:31N 34°39' E 033°01'0 0.0
2014-Aug-19 11:31N 34°39' E 033°01'0 0.0
2014-Aug-19 10:28N 34°39' E 033°01'0 0.0
2014-Aug-19 09:31N 34°39' E 033°01'0 0.0
2014-Aug-19 08:28N 34°39' E 033°01'0 0.0
2014-Aug-19 07:31N 34°39' E 033°01'0 0.0
2014-Aug-19 06:31N 34°39' E 033°01'0 0.0
2014-Aug-19 05:31N 34°39' E 033°01'0 0.0
2014-Aug-19 04:31N 34°39' E 033°01'0 0.0
2014-Aug-19 03:33N 34°39' E 033°01'3 2.8
2014-Aug-19 02:31N 34°40' E 033°04'0 0.0
2014-Aug-19 01:31N 34°40' E 033°04'0 0.0
2014-Aug-19 00:31N 34°40' E 033°04'0 0.0
2014-Aug-18 23:25N 34°40' E 033°04'0 0.0
2014-Aug-18 22:31N 34°40' E 033°04'0 0.0
2014-Aug-18 21:28N 34°40' E 033°04'0 0.0
2014-Aug-18 18:24N 34°40' E 033°04'6 7.3
2014-Aug-18 17:33N 34°34' E 033°04'1212.5
2014-Aug-18 16:33N 34°33' E 032°49'1413.4
2014-Aug-18 15:33N 34°37' E 032°33'27913.3
2014-Aug-17 18:33N 36°38' E 027°24'1511.5
2014-Aug-17 17:14N 36°53' E 027°23'913.1
2014-Aug-17 16:32N 36°57' E 027°13'1313.4
2014-Aug-17 15:33N 37°06' E 027°01'1413.8
2014-Aug-17 14:33N 37°18' E 026°52'1414.0
2014-Aug-17 13:33N 37°30' E 026°42'1414.0
2014-Aug-17 12:33N 37°41' E 026°32'1714.1
2014-Aug-17 11:20N 37°50' E 026°14'1814.1
2014-Aug-17 10:05N 37°59' E 025°54'814.1
2014-Aug-17 09:33N 38°03' E 025°46'1414.1
2014-Aug-17 08:32N 38°10' E 025°31'  
2014-Aug-14 02:27N 38°31' E 024°48'1213.1
2014-Aug-14 01:33N 38°25' E 025°01'1413.6
2014-Aug-14 00:31N 38°18' E 025°17'1913.5
2014-Aug-13 23:08N 38°08' E 025°37'2513.9
2014-Aug-13 21:21N 37°55' E 026°04'1214.0
2014-Aug-13 20:31N 37°49' E 026°17'1313.1
2014-Aug-13 19:33N 37°42' E 026°30'1312.7
2014-Aug-13 18:33N 37°32' E 026°40'1413.1
2014-Aug-13 17:32N 37°21' E 026°49'1513.3
2014-Aug-13 16:24N 37°08' E 026°59'3211.4
2014-Aug-13 13:33N 36°40' E 027°19'1313.0
2014-Aug-13 12:32N 36°35' E 027°34'9913.9
2014-Aug-13 05:26N 35°57' E 029°27'1314.0
2014-Aug-13 04:30N 35°51' E 029°41'1313.7
2014-Aug-13 03:33N 35°44' E 029°55'8413.6
2014-Aug-12 21:26N 35°05' E 031°26'2613.6
2014-Aug-12 19:33N 34°53' E 031°53'1913.4
2014-Aug-12 18:06N 34°44' E 032°14'713.4
2014-Aug-12 17:33N 34°40' E 032°22'1312.6
2014-Aug-12 16:33N 34°36' E 032°36'1312.7
2014-Aug-12 15:34N 34°33' E 032°51'1110.6
2014-Aug-12 14:34N 34°35' E 033°04'5 1.1
2014-Aug-12 10:12N 34°39' E 033°01'0 0.0
2014-Aug-12 09:27N 34°39' E 033°01'0 0.0
2014-Aug-12 08:33N 34°39' E 033°01'0 0.0
2014-Aug-12 07:33N 34°39' E 033°01'0 0.0
2014-Aug-12 06:33N 34°39' E 033°01'0 0.0
2014-Aug-12 05:33N 34°39' E 033°01'0 0.0
2014-Aug-12 04:33N 34°39' E 033°01'0 0.3
2014-Aug-12 03:33N 34°39' E 033°01'3 3.0
2014-Aug-12 02:33N 34°41' E 033°04'0 0.1
2014-Aug-12 01:33N 34°41' E 033°04'0 0.0
2014-Aug-12 00:33N 34°41' E 033°04'0 0.0
2014-Aug-11 23:33N 34°41' E 033°04'0 0.0
2014-Aug-11 22:33N 34°40' E 033°04'0 0.1
2014-Aug-11 21:34N 34°41' E 033°05'8 8.5
2014-Aug-11 20:34N 34°32' E 033°02'1312.7
2014-Aug-11 19:34N 34°33' E 032°47'1312.8
2014-Aug-11 18:34N 34°37' E 032°32'3013.4
2014-Aug-11 16:17N 34°50' E 031°59'1113.9
2014-Aug-11 15:29N 34°55' E 031°47'  
Track history (hours):
 
Tides and Currents Weather Stations Pressure Air Temp Water Temp Dewpoint Dewpoint Depression Visibility Wind Speed Wind Dir Waves Ship Positions

Heinz Schepers

Last reported at 2014-Aug-20 23:33 UTC. Time now 2014-Aug-21 00:24 UTC.
Position N 38°18' E 025°16'.

Length 101 m; draft 5 m.

Type: Cargo ship. MMSI: 304596000.

Date/timePositionNaut miles runAvg speedWind from/ knotsBaromVisibWave heightAir tempDewpointWater temp
2014-Aug-20 23:33N 38°18' E 025°16'2713.5
2014-Aug-20 21:33N 38°04' E 025°45'1613.6
2014-Aug-20 20:21N 37°56' E 026°03'1113.5
2014-Aug-20 19:33N 37°50' E 026°15'1313.3
2014-Aug-20 18:33N 37°43' E 026°29'1312.9
2014-Aug-20 17:33N 37°33' E 026°39'1313.0
2014-Aug-20 16:33N 37°22' E 026°49'1313.4
2014-Aug-20 15:33N 37°11' E 026°58'1413.3
2014-Aug-20 14:30N 36°60' E 027°08'1313.4
2014-Aug-20 13:31N 36°53' E 027°22'1313.5
2014-Aug-20 12:32N 36°40' E 027°19'1312.8
2014-Aug-20 11:32N 36°34' E 027°34'25613.9
2014-Aug-19 17:05N 34°43' E 032°17'713.0
2014-Aug-19 16:31N 34°39' E 032°25'1212.7
2014-Aug-19 15:33N 34°36' E 032°39'1312.5
2014-Aug-19 14:34N 34°32' E 032°53'9 9.5
2014-Aug-19 13:33N 34°37' E 033°03'3 2.9
2014-Aug-19 12:31N 34°39' E 033°01'0 0.0
2014-Aug-19 11:31N 34°39' E 033°01'0 0.0
2014-Aug-19 10:28N 34°39' E 033°01'0 0.0
2014-Aug-19 09:31N 34°39' E 033°01'0 0.0
2014-Aug-19 08:28N 34°39' E 033°01'0 0.0
2014-Aug-19 07:31N 34°39' E 033°01'0 0.0
2014-Aug-19 06:31N 34°39' E 033°01'0 0.0
2014-Aug-19 05:31N 34°39' E 033°01'0 0.0
2014-Aug-19 04:31N 34°39' E 033°01'0 0.0
2014-Aug-19 03:33N 34°39' E 033°01'3 2.8
2014-Aug-19 02:31N 34°40' E 033°04'0 0.0
2014-Aug-19 01:31N 34°40' E 033°04'0 0.0
2014-Aug-19 00:31N 34°40' E 033°04'0 0.0
2014-Aug-18 23:25N 34°40' E 033°04'0 0.0
2014-Aug-18 22:31N 34°40' E 033°04'0 0.0
2014-Aug-18 21:28N 34°40' E 033°04'0 0.0
2014-Aug-18 18:24N 34°40' E 033°04'6 7.3
2014-Aug-18 17:33N 34°34' E 033°04'1212.5
2014-Aug-18 16:33N 34°33' E 032°49'1413.4
2014-Aug-18 15:33N 34°37' E 032°33'27913.3
2014-Aug-17 18:33N 36°38' E 027°24'1511.5
2014-Aug-17 17:14N 36°53' E 027°23'913.1
2014-Aug-17 16:32N 36°57' E 027°13'1313.4
2014-Aug-17 15:33N 37°06' E 027°01'1413.8
2014-Aug-17 14:33N 37°18' E 026°52'1414.0
2014-Aug-17 13:33N 37°30' E 026°42'1414.0
2014-Aug-17 12:33N 37°41' E 026°32'1714.1
2014-Aug-17 11:20N 37°50' E 026°14'1814.1
2014-Aug-17 10:05N 37°59' E 025°54'814.1
2014-Aug-17 09:33N 38°03' E 025°46'1414.1
2014-Aug-17 08:32N 38°10' E 025°31'  
2014-Aug-14 02:27N 38°31' E 024°48'1213.1
2014-Aug-14 01:33N 38°25' E 025°01'1413.6
2014-Aug-14 00:31N 38°18' E 025°17'1913.5
2014-Aug-13 23:08N 38°08' E 025°37'2513.9
2014-Aug-13 21:21N 37°55' E 026°04'1214.0
2014-Aug-13 20:31N 37°49' E 026°17'1313.1
2014-Aug-13 19:33N 37°42' E 026°30'1312.7
2014-Aug-13 18:33N 37°32' E 026°40'1413.1
2014-Aug-13 17:32N 37°21' E 026°49'1513.3
2014-Aug-13 16:24N 37°08' E 026°59'3211.4
2014-Aug-13 13:33N 36°40' E 027°19'1313.0
2014-Aug-13 12:32N 36°35' E 027°34'9913.9
2014-Aug-13 05:26N 35°57' E 029°27'1314.0
2014-Aug-13 04:30N 35°51' E 029°41'1313.7
2014-Aug-13 03:33N 35°44' E 029°55'8413.6
2014-Aug-12 21:26N 35°05' E 031°26'2613.6
2014-Aug-12 19:33N 34°53' E 031°53'1913.4
2014-Aug-12 18:06N 34°44' E 032°14'713.4
2014-Aug-12 17:33N 34°40' E 032°22'1312.6
2014-Aug-12 16:33N 34°36' E 032°36'1312.7
2014-Aug-12 15:34N 34°33' E 032°51'1110.6
2014-Aug-12 14:34N 34°35' E 033°04'5 1.1
2014-Aug-12 10:12N 34°39' E 033°01'0 0.0
2014-Aug-12 09:27N 34°39' E 033°01'0 0.0
2014-Aug-12 08:33N 34°39' E 033°01'0 0.0
2014-Aug-12 07:33N 34°39' E 033°01'0 0.0
2014-Aug-12 06:33N 34°39' E 033°01'0 0.0
2014-Aug-12 05:33N 34°39' E 033°01'0 0.0
2014-Aug-12 04:33N 34°39' E 033°01'0 0.3
2014-Aug-12 03:33N 34°39' E 033°01'3 3.0
2014-Aug-12 02:33N 34°41' E 033°04'0 0.1
2014-Aug-12 01:33N 34°41' E 033°04'0 0.0
2014-Aug-12 00:33N 34°41' E 033°04'0 0.0
2014-Aug-11 23:33N 34°41' E 033°04'0 0.0
2014-Aug-11 22:33N 34°40' E 033°04'0 0.1
2014-Aug-11 21:34N 34°41' E 033°05'8 8.5
2014-Aug-11 20:34N 34°32' E 033°02'1312.7
2014-Aug-11 19:34N 34°33' E 032°47'1312.8
2014-Aug-11 18:34N 34°37' E 032°32'3013.4
2014-Aug-11 16:17N 34°50' E 031°59'1113.9
2014-Aug-11 15:29N 34°55' E 031°47'  

Dump ship's entire track history